Latest METARs, TAFs and NOTAMs for ETSI


---------------------------------------------------------------------------
	(OBSERVATIONS)
ETSI 211620Z 18001KT 9999 FEW060 SCT095 BKN240 16/13 Q1016 BLU+=
ETSI 211558Z 17002KT 9999 FEW060 SCT095 BKN240 17/13 Q1015 BLU+=
ETSI 211520Z AUTO 18003KT 9999 // ////// 18/13 Q1016 ///=
---------------------------------------------------------------------------
	(FC)
TAF ETSI 201015Z 2011/2020 VRB03KT 6000 NSW SCT005 BKN250
     BECMG 2011/2012 23007KT 9999 NSW FEW020 SCT140 BKN230
     BECMG 2018/2020 24003KT 4000 BR FEW050 BKN080=
---------------------------------------------------------------------------
	(TERMINAL AREA FORECAST)
COR ETSI 201058Z 2011/2020 VRB03KT 6000 NSW SCT005 BKN250
    BECMG  2011/2012 23007KT 9999 NSW FEW020 SCT140 BKN230
    BECMG  2018/2020 24003KT 4000 BR  FEW050 BKN080
    CANCEL 1120=
---------------------------------------------------------------------------
	(NOTAMS)


ETSI D1485/17 SPECIAL ACTIVITY AREA ESTABLISHED FOR AEROBATIC
    FLIGHTS IN VMC RADIUS 3NM CENTERED ON 484200N 0113200E AT
    INGOLSTADT/MANCHING AIRFIELD. GND - 6000FT AMSL, SAT SUN
    0700-SS, AUG 15 0700-SS, OCT 03 0700-SS, 06 AUG 07:00 2017
    UNTIL 28 OCT 15:54 2017. CREATED: 05 MAY 09:24 2017

ETSI D1486/17 SPECIAL ACTIVITY AREA ESTABLISHED FOR AEROBATIC
    FLIGHTS IN VMC RADIUS 3NM CENTERED ON 484200N 0113200E AT
    INGOLSTADT/MANCHING AIRFIELD. GND - 6000FT AMSL, SUN TUE
    0800-SS, 29 OCT 08:00 2017 UNTIL 31 OCT 15:49 2017. CREATED:
    05 MAY 09:25 2017

ETSI P5887/17 PAPI 25R U/S. 18 AUG 06:44 2017 UNTIL 17 NOV 12:00
    2017. CREATED: 18 AUG 06:47 2017

ETSI P5888/17 PAR 25L/07R OUT 0F SERVICE. 18 AUG 06:47 2017 UNTIL
    17 NOV 12:00 2017. CREATED: 18 AUG 06:49 2017

ETSI P5889/17 LIMITED RADAR COVERAGE BELOW 5000FT MSL. DETAILED
    INFORMATION BY INGO RADAR. 18 AUG 06:49 2017 UNTIL 17 NOV
    12:00 2017. CREATED: 18 AUG 06:51 2017

ETSI P5890/17 NO SRA POSSIBLE. 18 AUG 06:50 2017 UNTIL 17 NOV
    12:00 2017. CREATED: 18 AUG 06:52 2017

ETSI P5891/17 PAR 25R/07L OUT OF SERVICE. 18 AUG 06:52 2017 UNTIL
    17 NOV 12:00 2017. CREATED: 18 AUG 06:54 2017

ETSI P6862/17 AD MIL OPENING HOURS CHANGED TO: MON-THU 0700-1400
    FR 0700-1100. 22 SEP 06:03 2017 UNTIL 27 OCT 11:00 2017.
    CREATED: 22 SEP 06:07 2017

ETSI P6920/17 NO APCH END ARRESTMENT FOR RWY07L. 25 SEP 14:13
    2017 UNTIL 22 DEC 12:00 2017. CREATED: 26 SEP 21:29 2017

ETSI P7041/17 FREQUENCY 362.300 OUT OF SERVICE. 28 SEP 13:47
    2017 UNTIL 24 NOV 13:00 2017. CREATED: 28 SEP 13:52 2017

ETSI P7043/17 OM ILS RWY25L OUT OF SERVICE. 28 SEP 13:51 2017
    UNTIL 24 NOV 13:00 2017. CREATED: 28 SEP 13:54 2017

ETSI P7551/17 AERODROME CLOSED EXCEPT FOR CIVIL AIR TRAFFIC WITH
    PPR. 30 OCT 08:00 2017 UNTIL 03 NOV 13:00 2017. CREATED:
    19 OCT 08:51 2017

ETSI P7553/17 RWY 25L/07R CLOSED. 26 OCT 06:00 2017 UNTIL 26
    OCT 14:00 2017. CREATED: 19 OCT 08:54 2017

ETSI P7554/17 NO ALTN FUNCTION. 26 OCT 06:00 2017 UNTIL 26 OCT
    14:00 2017. CREATED: 19 OCT 08:56 2017

ETSI P7555/17 NO PRACT APCH FOR NON HOMEBASED AIRCRAFT FOR RWY25R/07L
    POSSIBLE. 26 OCT 06:00 2017 UNTIL 26 OCT 14:00 2017. CREATED:
    19 OCT 09:00 2017

ETSI P7556/17 NO TKOF MIL JET ACFT BTWN 1000 AND 1130. 26 OCT
    06:00 2017 UNTIL 26 OCT 14:00 2017. CREATED: 19 OCT 09:02
    2017

ETSI P7557/17 NO LDG, GND HANDLING FOR ARMED A/C. 26 OCT 06:00
    2017 UNTIL 26 OCT 14:00 2017. CREATED: 19 OCT 09:04 2017

ETSI P7558/17 24 HRS PPR. 26 OCT 06:00 2017 UNTIL 26 OCT 14:00
    2017. CREATED: 19 OCT 09:06 2017

ETSI P7559/17 RWY25R/07L REOPENED FOR IFR OPERATION. 26 OCT 06:00
    2017 UNTIL 26 OCT 14:00 2017. CREATED: 19 OCT 09:11 2017

ETSI P7590/17 RWY 25R/07L 150M AROUND INTERSECTION B5, RADAR
    TRANSMISSION BUFFER ZONE FROM GND TO 1000FT AGL. AIRCRAFT
    SHOULD AVOID THE AREA. DAILY 0700-1600, 02 NOV 07:00 2017
    UNTIL 03 NOV 16:00 2017. CREATED: 20 OCT 08:00 2017

ETSI U0072/17 GEMIL FLIP VAD AERODROME CHART INGOLSTADT/MANCHING
    (ETSI) CHANGE TDZE RWY 25R TO READ 1190.4 NOTAM WILL BE INCORPORATED
    IN FLIP DATED 09 NOV 2017. 14 SEP 00:01 2017 UNTIL 08 NOV
    23:59 2017. CREATED: 25 AUG 07:57 2017

---------------------------------------------------------------------------